^^
Station Historical Data
Daily Summary for October 31, 2021 Units:  English    Metric   Both
Daily Weekly Monthly Yearly
  High: Low: Average:
Temperature: 51.5 °F 46.1 °F 49 °F
Dew Point: 47.8 °F 42.3 °F 45.4 °F
Humidity: 89% 84% 87%
Wind Speed: 6mph 1mph 2.5mph
Wind Gust: 12mph - -
Wind- - West
Pressure: 29.69 in 29.62 in -
Precipitation: 0.00 in    
 
 
Tabular Data for October 31, 2021
Time Temperature Dew Point Pressure Wind Wind Speed Wind Gust Humidity Rainfall Rate (Hourly) solar
00:00 51.5 °F 46.8 °F 29.63 in WSW 2 mph 2 mph 84% 0.00 in 0 W/m2
00:05 51.5 °F 47.1 °F 29.63 in NNW 1 mph 2 mph 85% 0.00 in 0 W/m2
00:10 51.5 °F 47.1 °F 29.63 in SE 2 mph 2 mph 85% 0.00 in 0 W/m2
00:15 51.5 °F 47.1 °F 29.62 in NW 2 mph 2 mph 85% 0.00 in 0 W/m2
00:20 51.5 °F 47.1 °F 29.63 in North 2 mph 6 mph 85% 0.00 in 0 W/m2
00:25 51.5 °F 47.1 °F 29.62 in NE 2 mph 6 mph 85% 0.00 in 0 W/m2
00:30 51.5 °F 47.1 °F 29.62 in East 2 mph 2 mph 85% 0.00 in 0 W/m2
00:35 51.5 °F 47.5 °F 29.62 in ENE 1 mph 2 mph 86% 0.00 in 0 W/m2
00:40 51.5 °F 47.5 °F 29.62 in North 2 mph 6 mph 86% 0.00 in 0 W/m2
00:45 51.5 °F 47.5 °F 29.62 in SE 2 mph 6 mph 86% 0.00 in 0 W/m2
00:50 51.5 °F 47.5 °F 29.62 in NNW 2 mph 2 mph 86% 0.00 in 0 W/m2
00:55 51.5 °F 47.5 °F 29.62 in WNW 2 mph 2 mph 86% 0.00 in 0 W/m2
01:00 51.5 °F 47.5 °F 29.62 in SSW 2 mph 2 mph 86% 0.00 in 0 W/m2
01:05 51.5 °F 47.5 °F 29.62 in South 2 mph 2 mph 86% 0.00 in 0 W/m2
01:10 51.5 °F 47.5 °F 29.62 in SW 2 mph 2 mph 86% 0.00 in 0 W/m2
01:15 51.5 °F 47.5 °F 29.62 in NW 1 mph 3 mph 86% 0.00 in 0 W/m2
01:20 51.5 °F 47.5 °F 29.62 in NNE 2 mph 2 mph 86% 0.00 in 0 W/m2
01:25 51.5 °F 47.8 °F 29.62 in NE 2 mph 2 mph 87% 0.00 in 0 W/m2
01:30 51.5 °F 47.5 °F 29.62 in North 2 mph 2 mph 86% 0.00 in 0 W/m2
01:35 51.4 °F 47.4 °F 29.62 in NNW 2 mph 2 mph 86% 0.00 in 0 W/m2
01:40 51.4 °F 47.7 °F 29.62 in WNW 2 mph 2 mph 87% 0.00 in 0 W/m2
01:45 51.4 °F 47.4 °F 29.62 in NNE 2 mph 2 mph 86% 0.00 in 0 W/m2
01:50 51.3 °F 47.3 °F 29.62 in NNW 2 mph 3 mph 86% 0.00 in 0 W/m2
01:55 51.2 °F 47.2 °F 29.62 in WNW 2 mph 3 mph 86% 0.00 in 0 W/m2
02:00 51.2 °F 47.2 °F 29.62 in NNW 2 mph 6 mph 86% 0.00 in 0 W/m2
02:05 51.1 °F 47.1 °F 29.62 in NW 3 mph 6 mph 86% 0.00 in 0 W/m2
02:10 50.9 °F 46.6 °F 29.62 in WNW 4 mph 4 mph 85% 0.00 in 0 W/m2
02:15 50.9 °F 46.9 °F 29.62 in NW 3 mph 4 mph 86% 0.00 in 0 W/m2
02:20 50.9 °F 46.9 °F 29.62 in NNW 3 mph 3 mph 86% 0.00 in 0 W/m2
02:25 50.9 °F 46.9 °F 29.62 in NW 2 mph 3 mph 86% 0.00 in 0 W/m2
02:30 50.8 °F 46.8 °F 29.62 in NW 2 mph 2 mph 86% 0.00 in 0 W/m2
02:35 50.8 °F 46.8 °F 29.62 in West 2 mph 2 mph 86% 0.00 in 0 W/m2
02:40 50.6 °F 46.6 °F 29.62 in North 2 mph 3 mph 86% 0.00 in 0 W/m2
02:45 50.6 °F 46.6 °F 29.62 in North 2 mph 3 mph 86% 0.00 in 0 W/m2
02:50 50.6 °F 46.6 °F 29.62 in NNW 2 mph 3 mph 86% 0.00 in 0 W/m2
02:55 50.5 °F 46.5 °F 29.62 in NW 2 mph 3 mph 86% 0.00 in 0 W/m2
03:05 50.3 °F 46.3 °F 29.62 in WNW 2 mph 2 mph 86% 0.00 in 0 W/m2
03:10 50.3 °F 46.3 °F 29.62 in WNW 2 mph 2 mph 86% 0.00 in 0 W/m2
03:15 50.1 °F 46.1 °F 29.62 in North 3 mph 3 mph 86% 0.00 in 0 W/m2
03:20 50 °F 46 °F 29.62 in West 3 mph 3 mph 86% 0.00 in 0 W/m2
03:25 49.9 °F 45.9 °F 29.62 in NNW 4 mph 5 mph 86% 0.00 in 0 W/m2
03:30 49.9 °F 45.9 °F 29.62 in WNW 4 mph 5 mph 86% 0.00 in 0 W/m2
03:35 49.8 °F 45.8 °F 29.63 in NNW 4 mph 9 mph 86% 0.00 in 0 W/m2
03:40 49.7 °F 46 °F 29.63 in West 4 mph 9 mph 87% 0.00 in 0 W/m2
03:45 49.6 °F 45.9 °F 29.63 in West 3 mph 4 mph 87% 0.00 in 0 W/m2
03:50 49.6 °F 45.9 °F 29.63 in NW 3 mph 4 mph 87% 0.00 in 0 W/m2
03:55 49.5 °F 45.8 °F 29.63 in North 3 mph 4 mph 87% 0.00 in 0 W/m2
04:00 49.5 °F 45.8 °F 29.63 in NW 2 mph 6 mph 87% 0.00 in 0 W/m2
04:05 49.4 °F 45.7 °F 29.63 in North 2 mph 6 mph 87% 0.00 in 0 W/m2
04:10 49.3 °F 45.6 °F 29.63 in WSW 2 mph 2 mph 87% 0.00 in 0 W/m2
04:15 49.4 °F 45.7 °F 29.62 in NW 2 mph 3 mph 87% 0.00 in 0 W/m2
04:20 49.3 °F 45.6 °F 29.63 in West 2 mph 2 mph 87% 0.00 in 0 W/m2
04:25 49.3 °F 45.6 °F 29.63 in NNW 2 mph 2 mph 87% 0.00 in 0 W/m2
04:30 49.2 °F 45.5 °F 29.62 in North 2 mph 2 mph 87% 0.00 in 0 W/m2
04:35 49.2 °F 45.5 °F 29.62 in WSW 2 mph 2 mph 87% 0.00 in 0 W/m2
04:40 49.2 °F 45.5 °F 29.62 in NW 2 mph 3 mph 87% 0.00 in 0 W/m2
04:45 49.1 °F 45.4 °F 29.63 in NW 3 mph 3 mph 87% 0.00 in 0 W/m2
04:50 49 °F 45.3 °F 29.63 in North 2 mph 2 mph 87% 0.00 in 0 W/m2
04:55 49 °F 45.3 °F 29.63 in NW 2 mph 2 mph 87% 0.00 in 0 W/m2
05:00 49 °F 45.3 °F 29.63 in NW 2 mph 3 mph 87% 0.00 in 0 W/m2
05:05 48.9 °F 45.2 °F 29.63 in NW 2 mph 3 mph 87% 0.00 in 0 W/m2
05:10 48.9 °F 45.2 °F 29.63 in SSW 3 mph 3 mph 87% 0.00 in 0 W/m2
05:15 48.9 °F 45.2 °F 29.64 in NNE 3 mph 3 mph 87% 0.00 in 0 W/m2
05:20 48.8 °F 45.1 °F 29.64 in WNW 2 mph 4 mph 87% 0.00 in 0 W/m2
05:25 48.8 °F 45.1 °F 29.64 in WSW 2 mph 4 mph 87% 0.00 in 0 W/m2
05:30 48.7 °F 45 °F 29.64 in NNW 2 mph 3 mph 87% 0.00 in 0 W/m2
05:35 48.7 °F 45 °F 29.64 in North 2 mph 3 mph 87% 0.00 in 0 W/m2
05:40 48.6 °F 45.2 °F 29.64 in NW 2 mph 2 mph 88% 0.00 in 0 W/m2
05:45 48.6 °F 45.2 °F 29.64 in NNW 2 mph 3 mph 88% 0.00 in 0 W/m2
05:50 48.5 °F 45.1 °F 29.64 in NNW 3 mph 3 mph 88% 0.00 in 0 W/m2
05:55 48.4 °F 45 °F 29.64 in NNW 3 mph 3 mph 88% 0.00 in 0 W/m2
06:00 48.4 °F 45 °F 29.64 in WNW 2 mph 2 mph 88% 0.00 in 0 W/m2
06:05 48.3 °F 44.9 °F 29.65 in NNW 1 mph 3 mph 88% 0.00 in 0 W/m2
06:10 48.3 °F 44.9 °F 29.64 in West 2 mph 2 mph 88% 0.00 in 0 W/m2
06:15 48.2 °F 44.8 °F 29.64 in WNW 2 mph 2 mph 88% 0.00 in 0 W/m2
06:20 48.2 °F 44.8 °F 29.65 in WNW 2 mph 2 mph 88% 0.00 in 0 W/m2
06:25 48.1 °F 44.7 °F 29.65 in NW 3 mph 5 mph 88% 0.00 in 0 W/m2
06:30 48 °F 44.6 °F 29.65 in West 3 mph 3 mph 88% 0.00 in 0 W/m2
06:35 48 °F 44.6 °F 29.65 in NW 3 mph 3 mph 88% 0.00 in 0 W/m2
06:40 47.9 °F 44.5 °F 29.65 in NW 2 mph 2 mph 88% 0.00 in 0 W/m2
06:45 47.9 °F 44.5 °F 29.65 in NNW 2 mph 2 mph 88% 0.00 in 0 W/m2
06:50 47.8 °F 44.4 °F 29.65 in WNW 2 mph 2 mph 88% 0.00 in 0 W/m2
06:55 47.8 °F 44.7 °F 29.65 in WNW 2 mph 2 mph 89% 0.00 in 0 W/m2
07:00 47.8 °F 44.7 °F 29.65 in North 2 mph 2 mph 89% 0.00 in 0 W/m2
07:05 47.7 °F 44.6 °F 29.65 in NNW 1 mph 2 mph 89% 0.00 in 0 W/m2
07:10 47.6 °F 44.5 °F 29.65 in NW 1 mph 1 mph 89% 0.00 in 0 W/m2
07:15 47.6 °F 44.5 °F 29.65 in WSW 1 mph 2 mph 89% 0.00 in 0 W/m2
07:20 47.6 °F 44.5 °F 29.65 in WSW 2 mph 2 mph 89% 0.00 in 0 W/m2
07:25 47.5 °F 44.4 °F 29.65 in SW 2 mph 3 mph 89% 0.00 in 0 W/m2
07:30 47.4 °F 44.3 °F 29.66 in NW 2 mph 2 mph 89% 0.00 in 0 W/m2
07:35 47.4 °F 44.3 °F 29.66 in NW 2 mph 2 mph 89% 0.00 in 0 W/m2
07:40 47.4 °F 44.3 °F 29.66 in West 2 mph 2 mph 89% 0.00 in 0 W/m2
07:45 47.4 °F 44.3 °F 29.66 in NNW 2 mph 4 mph 89% 0.00 in 0 W/m2
07:50 47.4 °F 44.3 °F 29.66 in NW 2 mph 3 mph 89% 0.00 in 0 W/m2
07:55 47.3 °F 44.2 °F 29.66 in West 2 mph 3 mph 89% 0.00 in 0 W/m2
08:00 47.2 °F 44.1 °F 29.67 in North 2 mph 3 mph 89% 0.00 in 0 W/m2
08:05 47.2 °F 44.1 °F 29.67 in WNW 3 mph 5 mph 89% 0.00 in 0 W/m2
08:10 47 °F 43.9 °F 29.67 in WNW 4 mph 4 mph 89% 0.00 in 5 W/m2
08:15 46.9 °F 43.5 °F 29.67 in NW 4 mph 4 mph 88% 0.00 in 7 W/m2
08:20 46.7 °F 43 °F 29.67 in NW 4 mph 8 mph 87% 0.00 in 11 W/m2
08:25 46.6 °F 42.9 °F 29.68 in NW 4 mph 8 mph 87% 0.00 in 11 W/m2
08:30 46.5 °F 42.8 °F 29.68 in NW 5 mph 8 mph 87% 0.00 in 12 W/m2
08:35 46.4 °F 42.7 °F 29.68 in NNW 5 mph 12 mph 87% 0.00 in 14 W/m2
08:40 46.4 °F 42.7 °F 29.68 in NW 6 mph 7 mph 87% 0.00 in 18 W/m2
08:45 46.3 °F 42.3 °F 29.69 in WNW 6 mph 8 mph 86% 0.00 in 19 W/m2
08:50 46.1 °F 42.4 °F 29.69 in WNW 5 mph 5 mph 87% 0.00 in 18 W/m2
08:55 46.1 °F 42.4 °F 29.69 in NW 4 mph 6 mph 87% 0.00 in 21 W/m2
09:00 46.1 °F 42.4 °F 29.69 in NW 4 mph 6 mph 87% 0.00 in 23 W/m2
09:05 46.1 °F 42.4 °F 29.69 in NNW 5 mph 6 mph 87% 0.00 in 25 W/m2
09:10 46.1 °F 42.4 °F 29.69 in WNW 4 mph 4 mph 87% 0.00 in 26 W/m2
09:15 46.3 °F 42.9 °F 29.69 in WNW 3 mph 4 mph 88% 0.00 in 37 W/m2
09:20 46.4 °F 43 °F 29.69 in NW 3 mph 3 mph 88% 0.00 in 37 W/m2
09:25 46.5 °F 43.1 °F 29.69 in NW 3 mph 4 mph 88% 0.00 in 32 W/m2
09:30 46.7 °F 43.3 °F 29.69 in West 3 mph 3 mph 88% 0.00 in 39 W/m2
09:35 46.8 °F 43.7 °F 29.69 in East 3 mph 3 mph 89% 0.00 in 49 W/m2
09:40 46.9 °F 43.8 °F 29.69 in NW 3 mph 5 mph 89% 0.00 in 69 W/m2
09:45 47.1 °F 44 °F 29.69 in NW 3 mph 5 mph 89% 0.00 in 146 W/m2
09:50 47.3 °F 44.2 °F 29.69 in NNW 4 mph 4 mph 89% 0.00 in 142 W/m2
09:55 47.6 °F 44.5 °F 29.69 in NNW 3 mph 4 mph 89% 0.00 in 167 W/m2
Sand Point, Michigan, USA
Compliments of Weather Underground - 2 mb